Hua Hin, Thailand
Current Conditions -  °F | °C
As of 9:30 PM on Thursday 23 Oct 2014 (Local Time) from VTBU Reporting Station
Haze Haze  
Wind Chill: 79°   Ceiling: 30000
Heat Index: 82°   Visibility: 1.8mi
Dew Point: 75°   Wind: 0mph
Humidity: 89%   Direction: NA
Pressure: 29.88"   Gusts: NA
Location:  12.57°N, 99.95°E
Report Text: VTBU 231430Z 00000KT 3000 BR FEW020CB SCT120 BKN300 26/24 Q1012 A2990 CB NW LTG
Loading
Personal Weather Stations






























Interactive Weather Map New forecast layout! Learn more

10-Day Weather Forecast

Advertisements
Track Severe Weather on mobile